createdAt,value
2017-10-26T00:00:03.265Z,9.30
2017-10-26T00:02:29.537Z,7.90
2017-10-26T00:04:56.585Z,8.53
2017-10-26T00:07:23.604Z,7.27
2017-10-26T00:09:50.562Z,8.57
2017-10-26T00:12:16.848Z,10.67
2017-10-26T00:14:43.127Z,11.63
2017-10-26T00:17:11.095Z,12.40
2017-10-26T00:19:37.670Z,11.57
2017-10-26T00:22:03.948Z,12.97
2017-10-26T00:24:31.087Z,12.50
2017-10-26T00:26:57.381Z,14.20
2017-10-26T00:29:23.695Z,14.33
2017-10-26T00:31:50.711Z,13.30
2017-10-26T00:34:16.990Z,14.27
2017-10-26T00:36:43.293Z,14.30
2017-10-26T00:39:11.221Z,12.53
2017-10-26T00:41:38.297Z,11.67
2017-10-26T00:44:05.327Z,13.20
2017-10-26T00:46:32.265Z,12.20
2017-10-26T00:48:58.561Z,13.77
2017-10-26T00:51:24.866Z,11.37
2017-10-26T00:53:51.174Z,9.63
2017-10-26T00:56:18.217Z,10.30
2017-10-26T00:58:44.512Z,11.50
2017-10-26T01:01:10.814Z,11.90
2017-10-26T01:03:37.173Z,9.60
2017-10-26T01:06:03.475Z,11.27
2017-10-26T01:08:29.822Z,10.17
2017-10-26T01:10:56.140Z,9.13
2017-10-26T01:13:22.462Z,7.53
2017-10-26T01:15:48.825Z,9.47
2017-10-26T01:18:15.183Z,8.20
2017-10-26T01:20:41.466Z,9.10
2017-10-26T01:23:08.235Z,10.40
2017-10-26T01:25:34.522Z,9.90
2017-10-26T01:28:00.826Z,8.27
2017-10-26T01:30:27.853Z,10.00
2017-10-26T01:32:54.153Z,9.47
2017-10-26T01:35:20.618Z,9.57
2017-10-26T01:37:47.008Z,9.60
2017-10-26T01:40:13.314Z,8.87
2017-10-26T01:42:39.654Z,8.83
2017-10-26T01:45:05.960Z,9.33
2017-10-26T01:47:32.261Z,10.67
2017-10-26T01:49:58.559Z,11.90
2017-10-26T01:52:24.846Z,13.47
2017-10-26T01:54:51.900Z,13.90
2017-10-26T01:57:18.209Z,14.37
2017-10-26T01:59:45.247Z,13.20
2017-10-26T02:02:11.538Z,12.80
2017-10-26T02:04:37.846Z,12.80
2017-10-26T02:07:04.137Z,12.53
2017-10-26T02:09:31.933Z,14.53
2017-10-26T02:11:58.238Z,14.93
2017-10-26T02:14:25.280Z,14.47
2017-10-26T02:16:51.582Z,14.43
2017-10-26T02:19:17.899Z,13.97
2017-10-26T02:21:44.189Z,12.57
2017-10-26T02:24:10.493Z,12.77
2017-10-26T02:26:36.807Z,10.97
2017-10-26T02:29:15.619Z,14.67
2017-10-26T02:31:41.923Z,15.53
2017-10-26T02:34:08.240Z,16.60
2017-10-26T02:36:35.298Z,18.57
2017-10-26T02:39:02.291Z,16.70
2017-10-26T02:41:28.881Z,18.90
2017-10-26T02:43:55.213Z,17.50
2017-10-26T02:46:21.549Z,19.80
2017-10-26T02:48:47.847Z,19.87
2017-10-26T02:51:15.683Z,17.10
2017-10-26T02:53:41.981Z,17.63
2017-10-26T02:56:08.272Z,18.03
2017-10-26T02:58:35.296Z,17.93
2017-10-26T03:01:02.471Z,16.10
2017-10-26T03:03:28.769Z,15.10
2017-10-26T03:05:55.090Z,15.70
2017-10-26T03:08:21.389Z,12.50
2017-10-26T03:10:48.173Z,16.50
2017-10-26T03:13:14.470Z,18.43
2017-10-26T03:15:40.786Z,18.53
2017-10-26T03:18:07.086Z,19.30
2017-10-26T03:20:34.143Z,18.97
2017-10-26T03:23:01.179Z,18.33
2017-10-26T03:25:27.489Z,18.67
2017-10-26T03:27:54.406Z,18.27
2017-10-26T03:30:20.699Z,16.67
2017-10-26T03:32:46.996Z,18.10
2017-10-26T03:35:13.278Z,17.73
2017-10-26T03:37:39.582Z,19.37
2017-10-26T03:40:06.621Z,17.93
2017-10-26T03:42:33.652Z,17.70
2017-10-26T03:44:59.914Z,16.83
2017-10-26T03:47:26.921Z,17.47
2017-10-26T03:49:53.173Z,20.93
2017-10-26T03:52:19.465Z,19.73
2017-10-26T03:54:45.764Z,19.67
2017-10-26T03:57:12.050Z,18.63
2017-10-26T03:59:38.312Z,16.57
2017-10-26T04:02:04.633Z,15.40
2017-10-26T04:04:31.659Z,14.80
2017-10-26T04:06:57.910Z,15.70
2017-10-26T04:09:24.933Z,15.73
2017-10-26T04:11:51.690Z,15.53
2017-10-26T04:14:18.717Z,15.60
2017-10-26T04:16:44.991Z,16.30
2017-10-26T04:19:11.273Z,16.07
2017-10-26T04:21:37.566Z,17.50
2017-10-26T04:24:03.870Z,18.83
2017-10-26T04:26:30.174Z,19.20
2017-10-26T04:28:57.228Z,19.77
2017-10-26T04:31:24.274Z,18.80
2017-10-26T04:33:51.352Z,19.20
2017-10-26T04:36:18.547Z,19.90
2017-10-26T04:38:44.840Z,21.47
2017-10-26T04:41:11.114Z,21.37
2017-10-26T04:43:37.426Z,20.50
2017-10-26T04:46:04.146Z,21.17
2017-10-26T04:48:30.444Z,21.60
2017-10-26T04:50:56.710Z,21.43
2017-10-26T04:53:23.015Z,20.27
2017-10-26T04:55:49.294Z,21.77
2017-10-26T04:58:15.571Z,20.60
2017-10-26T05:00:41.863Z,22.07
2017-10-26T05:03:08.898Z,20.67
2017-10-26T05:05:35.182Z,20.63
2017-10-26T05:08:01.465Z,20.43
2017-10-26T05:10:27.761Z,21.30
2017-10-26T05:12:54.059Z,19.77
2017-10-26T05:15:20.346Z,21.67
2017-10-26T05:17:46.613Z,20.90
2017-10-26T05:20:12.924Z,21.17
2017-10-26T05:22:39.930Z,20.83
2017-10-26T05:25:06.215Z,20.37
2017-10-26T05:27:33.234Z,22.17
2017-10-26T05:29:59.537Z,20.57
2017-10-26T05:32:25.813Z,19.67
2017-10-26T05:34:52.854Z,23.40
2017-10-26T05:37:19.903Z,20.53
2017-10-26T05:39:46.944Z,22.23
2017-10-26T05:42:14.092Z,20.67
2017-10-26T05:44:40.393Z,21.10
2017-10-26T05:47:06.701Z,21.30
2017-10-26T05:49:33.016Z,23.17
2017-10-26T05:51:59.328Z,20.80
2017-10-26T05:54:26.361Z,22.20
2017-10-26T05:56:53.407Z,21.97
2017-10-26T05:59:20.438Z,24.30
2017-10-26T06:01:46.794Z,22.40
2017-10-26T06:04:14.687Z,23.53
2017-10-26T06:06:40.979Z,22.50
2017-10-26T06:09:08.004Z,23.13
2017-10-26T06:11:34.299Z,22.50
2017-10-26T06:14:00.575Z,23.83
2017-10-26T06:16:34.954Z,22.57
2017-10-26T06:19:01.226Z,21.90
2017-10-26T06:21:28.276Z,22.83
2017-10-26T06:23:55.345Z,20.70
2017-10-26T06:26:21.642Z,21.97
2017-10-26T06:28:47.939Z,22.70
2017-10-26T06:31:15.197Z,22.80
2017-10-26T06:33:42.231Z,21.73
2017-10-26T06:36:08.511Z,21.47
2017-10-26T06:38:34.805Z,24.63
2017-10-26T06:41:01.090Z,23.07
2017-10-26T06:43:28.173Z,24.80
2017-10-26T06:45:54.430Z,22.90
2017-10-26T06:48:21.530Z,21.87
2017-10-26T06:50:47.834Z,23.47
2017-10-26T06:53:14.869Z,20.67
2017-10-26T06:55:41.137Z,20.50
2017-10-26T06:58:07.446Z,22.00
2017-10-26T07:00:34.521Z,21.53
2017-10-26T07:03:00.814Z,19.03
2017-10-26T07:05:27.850Z,19.77
2017-10-26T07:07:54.966Z,18.80
2017-10-26T07:10:21.245Z,21.10
2017-10-26T07:12:48.281Z,20.87
2017-10-26T07:15:15.318Z,23.23
2017-10-26T07:17:42.403Z,25.10
2017-10-26T07:20:08.683Z,19.80
2017-10-26T07:22:34.962Z,19.80
2017-10-26T07:25:01.404Z,18.47
2017-10-26T07:27:27.848Z,19.00
2017-10-26T07:29:54.162Z,16.93
2017-10-26T07:32:20.452Z,17.30
2017-10-26T07:34:47.526Z,15.37
2017-10-26T07:37:13.982Z,15.83
2017-10-26T07:39:40.354Z,16.40
2017-10-26T07:42:07.416Z,15.70
2017-10-26T07:44:34.480Z,15.53
2017-10-26T07:47:00.797Z,14.00
2017-10-26T07:49:28.015Z,15.17
2017-10-26T07:51:54.333Z,15.57
2017-10-26T07:54:20.642Z,15.73
2017-10-26T07:56:46.969Z,16.10
2017-10-26T07:59:13.285Z,15.20
2017-10-26T08:01:41.307Z,14.30
2017-10-26T08:04:07.645Z,14.60
2017-10-26T08:06:33.978Z,14.57
2017-10-26T08:09:00.627Z,14.07
2017-10-26T08:11:27.024Z,14.53
2017-10-26T08:13:53.362Z,15.20
2017-10-26T08:16:19.702Z,13.83
2017-10-26T08:18:46.012Z,13.87
2017-10-26T08:21:12.351Z,13.30
2017-10-26T08:23:38.674Z,12.57
2017-10-26T08:26:05.016Z,13.33
2017-10-26T08:28:31.328Z,13.43
2017-10-26T08:30:57.648Z,14.00
2017-10-26T08:33:23.953Z,12.87
2017-10-26T08:35:51.026Z,12.97
2017-10-26T08:38:17.341Z,13.40
2017-10-26T08:40:44.486Z,13.70
2017-10-26T08:43:10.793Z,13.83
2017-10-26T08:45:37.851Z,13.10
2017-10-26T08:48:04.909Z,13.10
2017-10-26T08:50:31.294Z,11.70
2017-10-26T08:52:59.097Z,13.50
2017-10-26T08:55:25.479Z,12.50
2017-10-26T08:57:51.785Z,12.77
2017-10-26T09:00:18.129Z,12.60
2017-10-26T09:02:44.470Z,12.50
2017-10-26T09:05:10.796Z,13.70
2017-10-26T09:07:37.091Z,13.70
2017-10-26T09:10:04.218Z,13.40
2017-10-26T09:12:31.297Z,12.77
2017-10-26T09:14:57.623Z,14.07
2017-10-26T09:17:23.958Z,14.00
2017-10-26T09:19:50.267Z,12.97
2017-10-26T09:22:16.579Z,12.60
2017-10-26T09:24:43.617Z,12.00
2017-10-26T09:27:09.932Z,11.93
2017-10-26T09:29:36.246Z,11.93
2017-10-26T09:32:02.585Z,13.80
2017-10-26T09:34:28.886Z,14.00
2017-10-26T09:36:55.195Z,14.83
2017-10-26T09:39:21.523Z,16.40
2017-10-26T09:41:47.887Z,17.43
2017-10-26T09:44:14.207Z,18.13
2017-10-26T09:46:40.539Z,17.33
2017-10-26T09:49:06.886Z,16.20
2017-10-26T09:51:33.199Z,17.90
2017-10-26T09:53:59.534Z,17.40
2017-10-26T09:56:25.841Z,17.60
2017-10-26T09:58:52.175Z,18.20
2017-10-26T10:01:18.497Z,17.27
2017-10-26T10:03:44.828Z,17.47
2017-10-26T10:06:11.878Z,20.20
2017-10-26T10:08:38.207Z,17.70
2017-10-26T10:11:04.513Z,19.10
2017-10-26T10:13:31.590Z,21.67
2017-10-26T10:15:57.891Z,22.70
2017-10-26T10:18:24.965Z,22.07
2017-10-26T10:20:51.274Z,24.00
2017-10-26T10:23:18.322Z,23.40
2017-10-26T10:25:45.373Z,23.73
2017-10-26T10:28:12.436Z,24.77
2017-10-26T10:30:38.757Z,25.30
2017-10-26T10:33:05.846Z,28.30
2017-10-26T10:35:32.194Z,25.70
2017-10-26T10:37:58.515Z,24.90
2017-10-26T10:40:24.839Z,25.53
2017-10-26T10:42:51.984Z,25.37
2017-10-26T10:45:18.291Z,24.27
2017-10-26T10:47:44.621Z,23.63
2017-10-26T10:50:10.938Z,24.90
2017-10-26T10:52:38.069Z,23.10
2017-10-26T10:55:06.045Z,23.80
2017-10-26T10:57:33.092Z,23.70
2017-10-26T11:00:06.180Z,23.37
2017-10-26T11:02:33.630Z,23.90
2017-10-26T11:05:01.274Z,25.03
2017-10-26T11:07:27.685Z,23.97
2017-10-26T11:09:54.073Z,24.40
2017-10-26T11:12:21.121Z,25.60
2017-10-26T11:14:48.205Z,25.13
2017-10-26T11:17:14.545Z,25.40
2017-10-26T11:19:40.908Z,26.07
2017-10-26T11:24:41.083Z,26.37
2017-10-26T11:27:07.422Z,28.03
2017-10-26T11:29:34.543Z,25.77
2017-10-26T11:32:01.616Z,25.30
2017-10-26T11:34:28.950Z,25.33
2017-10-26T11:36:55.408Z,27.57
2017-10-26T11:39:21.801Z,27.40
2017-10-26T11:41:48.199Z,26.23
2017-10-26T11:44:14.537Z,27.20
2017-10-26T11:46:40.954Z,24.63
2017-10-26T11:49:07.282Z,24.93
2017-10-26T11:51:33.613Z,25.80
2017-10-26T11:53:59.971Z,25.30
2017-10-26T11:56:27.285Z,26.27
2017-10-26T11:58:53.616Z,25.00
2017-10-26T12:01:19.988Z,26.93
2017-10-26T12:03:46.335Z,26.23
2017-10-26T12:06:13.403Z,26.10
2017-10-26T12:08:39.742Z,24.93
2017-10-26T12:11:06.069Z,25.60
2017-10-26T12:13:32.404Z,27.33
2017-10-26T12:15:58.825Z,28.10
2017-10-26T12:18:25.208Z,28.20
2017-10-26T12:20:51.651Z,25.90
2017-10-26T12:23:18.747Z,26.97
2017-10-26T12:25:45.080Z,26.47
2017-10-26T12:28:11.414Z,27.30
2017-10-26T12:30:37.762Z,25.90
2017-10-26T12:33:04.104Z,28.27
2017-10-26T12:35:30.450Z,25.10
2017-10-26T12:37:57.586Z,26.27
2017-10-26T12:40:23.902Z,26.70
2017-10-26T12:42:50.266Z,25.07
2017-10-26T12:45:16.599Z,27.17
2017-10-26T12:47:42.901Z,26.90
2017-10-26T12:50:09.338Z,27.57
2017-10-26T12:52:35.699Z,26.60
2017-10-26T12:55:03.776Z,27.40
2017-10-26T12:57:30.837Z,28.10
2017-10-26T12:59:57.163Z,26.53
2017-10-26T13:02:24.261Z,24.57
2017-10-26T13:04:50.628Z,24.47
2017-10-26T13:07:17.117Z,25.40
2017-10-26T13:09:43.448Z,24.43
2017-10-26T13:12:09.768Z,23.13
2017-10-26T13:14:36.155Z,24.20
2017-10-26T13:17:03.229Z,23.77
2017-10-26T13:19:29.659Z,23.03
2017-10-26T13:21:55.987Z,23.07
2017-10-26T13:24:22.312Z,22.53
2017-10-26T13:26:49.386Z,22.87
2017-10-26T13:29:16.647Z,20.90
2017-10-26T13:31:42.973Z,23.07
2017-10-26T13:34:10.053Z,20.50
2017-10-26T13:36:36.416Z,21.87
2017-10-26T13:39:03.531Z,20.60
2017-10-26T13:41:29.861Z,21.43
2017-10-26T13:43:56.150Z,21.70
2017-10-26T13:46:22.496Z,22.00
2017-10-26T13:48:48.786Z,20.83
2017-10-26T13:51:15.954Z,21.27
2017-10-26T13:53:42.271Z,20.40
2017-10-26T13:56:08.582Z,20.53
2017-10-26T13:58:36.841Z,20.70
2017-10-26T14:01:03.178Z,21.07
2017-10-26T14:03:29.504Z,21.07
2017-10-26T14:05:55.826Z,20.20
2017-10-26T14:08:22.161Z,20.07
2017-10-26T14:10:48.588Z,20.50
2017-10-26T14:13:14.903Z,18.80
2017-10-26T14:15:41.255Z,18.70
2017-10-26T14:18:07.567Z,18.00
2017-10-26T14:20:33.954Z,18.67
2017-10-26T14:23:00.997Z,19.17
2017-10-26T14:25:28.015Z,18.73
2017-10-26T14:27:54.358Z,17.37
2017-10-26T14:30:20.646Z,15.67
2017-10-26T14:32:46.969Z,18.07
2017-10-26T14:35:13.251Z,16.50
2017-10-26T14:37:39.538Z,17.20
2017-10-26T14:40:06.733Z,18.10
2017-10-26T14:42:33.038Z,16.23
2017-10-26T14:44:59.319Z,16.43
2017-10-26T14:47:25.624Z,13.50
2017-10-26T14:49:51.899Z,13.00
2017-10-26T14:52:18.192Z,13.70
2017-10-26T14:54:46.137Z,13.13
2017-10-26T14:57:13.383Z,12.00
2017-10-26T14:59:40.447Z,12.40
2017-10-26T15:02:06.763Z,12.00
2017-10-26T15:04:33.577Z,12.07
2017-10-26T15:06:59.852Z,11.57
2017-10-26T15:09:26.180Z,12.10
2017-10-26T15:11:52.458Z,9.77
2017-10-26T15:14:18.753Z,10.40
2017-10-26T15:16:46.606Z,11.30
2017-10-26T15:19:13.633Z,11.07
2017-10-26T15:21:39.947Z,10.50
2017-10-26T15:24:06.258Z,11.30
2017-10-26T15:26:32.539Z,10.40
2017-10-26T15:28:58.821Z,10.33
2017-10-26T15:31:25.098Z,10.00
2017-10-26T15:33:51.413Z,10.73
2017-10-26T15:36:17.726Z,10.43
2017-10-26T15:38:44.016Z,10.70
2017-10-26T15:41:10.304Z,10.27
2017-10-26T15:43:36.568Z,10.20
2017-10-26T15:46:02.888Z,10.20
2017-10-26T15:48:29.948Z,10.77
2017-10-26T15:50:56.988Z,12.03
2017-10-26T15:53:23.283Z,12.90
2017-10-26T15:55:49.565Z,12.83
2017-10-26T15:58:15.836Z,12.33
2017-10-26T16:00:42.135Z,13.53
2017-10-26T16:03:08.430Z,11.67
2017-10-26T16:05:35.465Z,11.37
2017-10-26T16:08:01.765Z,12.20
2017-10-26T16:10:28.071Z,11.73
2017-10-26T16:12:54.430Z,16.93
2017-10-26T16:15:20.759Z,12.27
2017-10-26T16:17:47.082Z,13.07
2017-10-26T16:20:13.390Z,13.10
2017-10-26T16:22:39.680Z,13.27
2017-10-26T16:25:06.727Z,12.53
2017-10-26T16:27:33.769Z,13.23
2017-10-26T16:30:00.814Z,12.50
2017-10-26T16:32:27.093Z,13.93
2017-10-26T16:34:53.438Z,12.93
2017-10-26T16:37:19.718Z,13.63
2017-10-26T16:39:46.732Z,14.10
2017-10-26T16:42:13.155Z,13.00
2017-10-26T16:44:40.370Z,12.07
2017-10-26T16:47:06.707Z,11.33
2017-10-26T16:49:32.962Z,11.83
2017-10-26T16:51:59.266Z,11.80
2017-10-26T16:54:25.547Z,11.77
2017-10-26T16:56:52.568Z,10.27
2017-10-26T16:59:18.838Z,11.17
2017-10-26T17:01:45.860Z,9.77
2017-10-26T17:04:12.123Z,11.27
2017-10-26T17:06:39.153Z,11.07
2017-10-26T17:09:06.172Z,11.83
2017-10-26T17:11:32.470Z,15.27
2017-10-26T17:13:58.739Z,11.07
2017-10-26T17:16:25.076Z,10.20
2017-10-26T17:18:51.342Z,9.80
2017-10-26T17:21:18.375Z,9.03
2017-10-26T17:23:45.372Z,9.00
2017-10-26T17:26:12.648Z,9.17
2017-10-26T17:28:38.934Z,9.43
2017-10-26T17:31:05.197Z,8.40
2017-10-26T17:33:31.472Z,9.07
2017-10-26T17:35:58.479Z,9.37
2017-10-26T17:38:24.775Z,10.67
2017-10-26T17:40:51.062Z,9.67
2017-10-26T17:43:17.473Z,9.00
2017-10-26T17:45:43.747Z,8.50
2017-10-26T17:48:10.044Z,7.83
2017-10-26T17:50:37.087Z,8.10
2017-10-26T17:53:04.118Z,7.63
2017-10-26T17:55:32.490Z,8.07
2017-10-26T17:57:58.768Z,8.43
2017-10-26T18:00:25.874Z,7.87
2017-10-26T18:02:52.903Z,8.20
2017-10-26T18:05:19.171Z,9.13
2017-10-26T18:07:46.201Z,8.93
2017-10-26T18:10:12.492Z,8.70
2017-10-26T18:12:38.764Z,10.80
2017-10-26T18:15:05.067Z,10.43
2017-10-26T18:17:31.346Z,9.27
2017-10-26T18:19:58.366Z,9.20
2017-10-26T18:22:24.666Z,10.27
2017-10-26T18:24:51.049Z,9.33
2017-10-26T18:27:18.115Z,9.90
2017-10-26T18:29:44.419Z,10.10
2017-10-26T18:32:11.582Z,10.13
2017-10-26T18:34:37.916Z,10.40
2017-10-26T18:37:04.356Z,10.07
2017-10-26T18:39:30.673Z,10.07
2017-10-26T18:41:57.697Z,11.53
2017-10-26T18:44:24.074Z,9.90
2017-10-26T18:46:50.358Z,10.67
2017-10-26T18:49:16.673Z,10.83
2017-10-26T18:51:43.000Z,11.67
2017-10-26T18:54:09.319Z,12.60
2017-10-26T18:56:35.660Z,11.67
2017-10-26T18:59:02.020Z,12.10
2017-10-26T19:01:28.341Z,12.00
2017-10-26T19:03:55.385Z,12.80
2017-10-26T19:06:21.705Z,12.13
2017-10-26T19:08:48.071Z,12.13
2017-10-26T19:11:14.470Z,11.00
2017-10-26T19:13:41.530Z,11.47
2017-10-26T19:16:07.851Z,12.07
2017-10-26T19:18:34.126Z,11.03
2017-10-26T19:21:00.413Z,12.40
2017-10-26T19:23:26.701Z,10.93
2017-10-26T19:25:52.976Z,11.30
2017-10-26T19:28:20.729Z,11.70
2017-10-26T19:30:47.048Z,11.90
2017-10-26T19:33:13.342Z,11.60
2017-10-26T19:35:39.729Z,11.43
2017-10-26T19:38:06.816Z,12.03
2017-10-26T19:40:33.148Z,11.77
2017-10-26T19:42:59.432Z,13.40
2017-10-26T19:45:25.715Z,11.40
2017-10-26T19:47:51.999Z,12.30
2017-10-26T19:50:19.050Z,13.43
2017-10-26T19:52:45.318Z,11.30
2017-10-26T19:55:13.280Z,10.90
2017-10-26T19:57:39.571Z,12.67
2017-10-26T20:00:06.607Z,11.30
2017-10-26T20:02:33.847Z,11.50
2017-10-26T20:05:00.907Z,11.10
2017-10-26T20:07:27.232Z,12.47
2017-10-26T20:09:53.511Z,11.73
2017-10-26T20:12:19.793Z,10.83
2017-10-26T20:14:46.839Z,11.60
2017-10-26T20:17:13.887Z,12.30
2017-10-26T20:19:40.950Z,11.60
2017-10-26T20:22:07.243Z,11.90
2017-10-26T20:24:33.529Z,11.60
2017-10-26T20:27:00.562Z,10.53
2017-10-26T20:29:27.599Z,9.97
2017-10-26T20:31:55.270Z,10.50
2017-10-26T20:34:22.428Z,9.00
2017-10-26T20:36:49.451Z,8.97
2017-10-26T20:39:15.730Z,9.80
2017-10-26T20:41:42.192Z,8.93
2017-10-26T20:44:08.466Z,8.93
2017-10-26T20:46:35.525Z,8.80
2017-10-26T20:49:08.845Z,9.20
2017-10-26T20:51:41.209Z,8.23
2017-10-26T20:54:13.584Z,8.77
2017-10-26T20:56:45.932Z,7.50
2017-10-26T20:59:19.138Z,8.07
2017-10-26T21:02:06.417Z,7.47
2017-10-26T21:04:48.414Z,7.03
2017-10-26T21:07:20.852Z,7.80
2017-10-26T21:09:47.150Z,7.27
2017-10-26T21:12:20.387Z,7.77
2017-10-26T21:14:46.680Z,6.87
2017-10-26T21:17:12.957Z,8.27
2017-10-26T21:19:39.237Z,7.50
2017-10-26T21:22:05.501Z,6.87
2017-10-26T21:24:31.831Z,6.40
2017-10-26T21:26:58.094Z,6.53
2017-10-26T21:29:25.848Z,5.63
2017-10-26T21:31:52.118Z,6.87
2017-10-26T21:34:19.134Z,5.37
2017-10-26T21:36:46.889Z,6.30
2017-10-26T21:39:13.202Z,6.23
2017-10-26T21:41:39.481Z,6.30
2017-10-26T21:44:06.489Z,5.27
2017-10-26T21:46:32.775Z,6.23
2017-10-26T21:48:59.040Z,5.60
2017-10-26T21:51:25.333Z,5.90
2017-10-26T21:53:51.593Z,6.00
2017-10-26T21:56:17.888Z,6.23
2017-10-26T21:58:44.179Z,6.30
2017-10-26T22:01:11.218Z,5.63
2017-10-26T22:03:37.500Z,6.70
2017-10-26T22:06:03.797Z,5.97
2017-10-26T22:08:30.827Z,6.53
2017-10-26T22:10:57.123Z,6.60
2017-10-26T22:13:23.426Z,6.53
2017-10-26T22:15:49.799Z,7.00
2017-10-26T22:18:16.105Z,6.57
2017-10-26T22:20:42.375Z,6.50
2017-10-26T22:23:08.657Z,7.37
2017-10-26T22:25:34.941Z,7.30
2017-10-26T22:28:01.989Z,7.50
2017-10-26T22:30:29.037Z,6.90
2017-10-26T22:32:55.364Z,7.83
2017-10-26T22:35:21.663Z,6.97
2017-10-26T22:37:47.953Z,7.97
2017-10-26T22:40:14.232Z,6.97
2017-10-26T22:42:40.547Z,7.83
2017-10-26T22:45:06.813Z,7.67
2017-10-26T22:47:33.832Z,8.50
2017-10-26T22:50:00.107Z,8.50
2017-10-26T22:52:27.119Z,8.47
2017-10-26T22:54:53.659Z,8.40
2017-10-26T22:57:20.717Z,9.10
2017-10-26T22:59:47.754Z,9.37
2017-10-26T23:02:14.131Z,8.47
2017-10-26T23:04:41.233Z,8.10
2017-10-26T23:07:07.538Z,8.60
2017-10-26T23:09:33.826Z,8.10
2017-10-26T23:12:00.121Z,8.83
2017-10-26T23:14:27.324Z,9.33
2017-10-26T23:16:53.602Z,8.87
2017-10-26T23:19:19.888Z,8.60
2017-10-26T23:21:46.154Z,7.93
2017-10-26T23:24:13.196Z,8.57
2017-10-26T23:26:39.561Z,7.80
2017-10-26T23:29:06.577Z,8.10
2017-10-26T23:31:32.852Z,7.67
2017-10-26T23:33:59.133Z,7.70
2017-10-26T23:36:25.428Z,7.73
2017-10-26T23:38:51.714Z,7.20
2017-10-26T23:41:18.738Z,7.43
2017-10-26T23:43:45.031Z,7.23
2017-10-26T23:46:11.317Z,7.40
2017-10-26T23:48:37.617Z,5.90
2017-10-26T23:51:03.903Z,8.43
2017-10-26T23:53:30.222Z,6.40
2017-10-26T23:55:57.246Z,7.87
2017-10-26T23:58:23.562Z,7.40
